sensor_id;sensor_type;location;lat;lon;timestamp;P1;P2;P0
64631;PMS5003;58358;50.936;0.246;2022-07-05T00:00:04;22;20;
64631;PMS5003;58358;50.936;0.246;2022-07-05T00:02:29;20;20;
64631;PMS5003;58358;50.936;0.246;2022-07-05T00:04:54;23;22;
64631;PMS5003;58358;50.936;0.246;2022-07-05T00:07:20;23;21;
64631;PMS5003;58358;50.936;0.246;2022-07-05T00:09:47;20;19;
64631;PMS5003;58358;50.936;0.246;2022-07-05T00:12:11;21;20;
64631;PMS5003;58358;50.936;0.246;2022-07-05T00:14:37;23;21;
64631;PMS5003;58358;50.936;0.246;2022-07-05T00:17:03;20;19;
64631;PMS5003;58358;50.936;0.246;2022-07-05T00:19:29;19;19;
64631;PMS5003;58358;50.936;0.246;2022-07-05T00:21:54;14;14;
64631;PMS5003;58358;50.936;0.246;2022-07-05T00:24:20;21;20;
64631;PMS5003;58358;50.936;0.246;2022-07-05T00:26:46;17;17;
64631;PMS5003;58358;50.936;0.246;2022-07-05T00:29:11;20;20;
64631;PMS5003;58358;50.936;0.246;2022-07-05T00:31:36;20;18;
64631;PMS5003;58358;50.936;0.246;2022-07-05T00:34:01;16;16;
64631;PMS5003;58358;50.936;0.246;2022-07-05T00:36:26;19;18;
64631;PMS5003;58358;50.936;0.246;2022-07-05T00:38:52;17;17;
64631;PMS5003;58358;50.936;0.246;2022-07-05T00:41:18;17;17;
64631;PMS5003;58358;50.936;0.246;2022-07-05T00:46:09;20;20;
64631;PMS5003;58358;50.936;0.246;2022-07-05T00:48:34;19;18;
64631;PMS5003;58358;50.936;0.246;2022-07-05T00:51:00;18;18;
64631;PMS5003;58358;50.936;0.246;2022-07-05T00:53:27;19;18;
64631;PMS5003;58358;50.936;0.246;2022-07-05T00:55:52;17;17;
64631;PMS5003;58358;50.936;0.246;2022-07-05T00:58:17;19;19;
64631;PMS5003;58358;50.936;0.246;2022-07-05T01:00:43;20;19;
64631;PMS5003;58358;50.936;0.246;2022-07-05T01:03:09;18;18;
64631;PMS5003;58358;50.936;0.246;2022-07-05T01:05:34;20;20;
64631;PMS5003;58358;50.936;0.246;2022-07-05T01:07:59;20;19;
64631;PMS5003;58358;50.936;0.246;2022-07-05T01:10:25;18;18;
64631;PMS5003;58358;50.936;0.246;2022-07-05T01:12:51;20;18;
64631;PMS5003;58358;50.936;0.246;2022-07-05T01:15:16;19;19;
64631;PMS5003;58358;50.936;0.246;2022-07-05T01:17:42;20;19;
64631;PMS5003;58358;50.936;0.246;2022-07-05T01:20:07;21;21;
64631;PMS5003;58358;50.936;0.246;2022-07-05T01:24:58;24;21;
64631;PMS5003;58358;50.936;0.246;2022-07-05T01:27:24;22;20;
64631;PMS5003;58358;50.936;0.246;2022-07-05T01:29:50;22;22;
64631;PMS5003;58358;50.936;0.246;2022-07-05T01:32:15;19;19;
64631;PMS5003;58358;50.936;0.246;2022-07-05T01:34:41;18;17;
64631;PMS5003;58358;50.936;0.246;2022-07-05T01:37:06;21;21;
64631;PMS5003;58358;50.936;0.246;2022-07-05T01:39:31;18;18;
64631;PMS5003;58358;50.936;0.246;2022-07-05T01:41:57;18;18;
64631;PMS5003;58358;50.936;0.246;2022-07-05T01:44:23;17;17;
64631;PMS5003;58358;50.936;0.246;2022-07-05T01:46:48;21;21;
64631;PMS5003;58358;50.936;0.246;2022-07-05T01:49:13;16;16;
64631;PMS5003;58358;50.936;0.246;2022-07-05T01:51:40;17;17;
64631;PMS5003;58358;50.936;0.246;2022-07-05T01:54:04;18;18;
64631;PMS5003;58358;50.936;0.246;2022-07-05T01:56:30;17;17;
64631;PMS5003;58358;50.936;0.246;2022-07-05T01:58:56;18;18;
64631;PMS5003;58358;50.936;0.246;2022-07-05T02:03:46;16;15;
64631;PMS5003;58358;50.936;0.246;2022-07-05T02:06:12;14;14;
64631;PMS5003;58358;50.936;0.246;2022-07-05T02:08:38;14;14;
64631;PMS5003;58358;50.936;0.246;2022-07-05T02:11:03;15;15;
64631;PMS5003;58358;50.936;0.246;2022-07-05T02:13:28;15;13;
64631;PMS5003;58358;50.936;0.246;2022-07-05T02:15:54;17;16;
64631;PMS5003;58358;50.936;0.246;2022-07-05T02:18:20;15;14;
64631;PMS5003;58358;50.936;0.246;2022-07-05T02:20:46;17;15;
64631;PMS5003;58358;50.936;0.246;2022-07-05T02:23:11;13;13;
64631;PMS5003;58358;50.936;0.246;2022-07-05T02:25:37;15;14;
64631;PMS5003;58358;50.936;0.246;2022-07-05T02:28:03;12;12;
64631;PMS5003;58358;50.936;0.246;2022-07-05T02:30:28;12;12;
64631;PMS5003;58358;50.936;0.246;2022-07-05T02:32:54;15;15;
64631;PMS5003;58358;50.936;0.246;2022-07-05T02:35:20;12;12;
64631;PMS5003;58358;50.936;0.246;2022-07-05T02:37:45;14;14;
64631;PMS5003;58358;50.936;0.246;2022-07-05T02:40:12;13;12;
64631;PMS5003;58358;50.936;0.246;2022-07-05T02:42:37;14;13;
64631;PMS5003;58358;50.936;0.246;2022-07-05T02:45:03;12;11;
64631;PMS5003;58358;50.936;0.246;2022-07-05T02:47:29;13;13;
64631;PMS5003;58358;50.936;0.246;2022-07-05T02:49:54;12;12;
64631;PMS5003;58358;50.936;0.246;2022-07-05T02:52:20;13;13;
64631;PMS5003;58358;50.936;0.246;2022-07-05T02:54:45;14;11;
64631;PMS5003;58358;50.936;0.246;2022-07-05T02:57:11;11;11;
64631;PMS5003;58358;50.936;0.246;2022-07-05T02:59:37;14;13;
64631;PMS5003;58358;50.936;0.246;2022-07-05T03:02:02;13;11;
64631;PMS5003;58358;50.936;0.246;2022-07-05T03:04:28;14;12;
64631;PMS5003;58358;50.936;0.246;2022-07-05T03:06:53;15;13;
64631;PMS5003;58358;50.936;0.246;2022-07-05T03:09:19;13;13;
64631;PMS5003;58358;50.936;0.246;2022-07-05T03:11:45;13;13;
64631;PMS5003;58358;50.936;0.246;2022-07-05T03:14:11;14;13;
64631;PMS5003;58358;50.936;0.246;2022-07-05T03:16:37;10;10;
64631;PMS5003;58358;50.936;0.246;2022-07-05T03:19:02;15;15;
64631;PMS5003;58358;50.936;0.246;2022-07-05T03:21:28;14;14;
64631;PMS5003;58358;50.936;0.246;2022-07-05T03:23:54;16;15;
64631;PMS5003;58358;50.936;0.246;2022-07-05T03:26:20;14;13;
64631;PMS5003;58358;50.936;0.246;2022-07-05T03:28:45;14;13;
64631;PMS5003;58358;50.936;0.246;2022-07-05T03:31:11;16;14;
64631;PMS5003;58358;50.936;0.246;2022-07-05T03:33:37;16;13;
64631;PMS5003;58358;50.936;0.246;2022-07-05T03:36:03;16;15;
64631;PMS5003;58358;50.936;0.246;2022-07-05T03:38:28;15;13;
64631;PMS5003;58358;50.936;0.246;2022-07-05T03:40:54;16;16;
64631;PMS5003;58358;50.936;0.246;2022-07-05T03:43:20;16;15;
64631;PMS5003;58358;50.936;0.246;2022-07-05T03:45:46;13;12;
64631;PMS5003;58358;50.936;0.246;2022-07-05T03:48:12;13;13;
64631;PMS5003;58358;50.936;0.246;2022-07-05T03:50:37;18;14;
64631;PMS5003;58358;50.936;0.246;2022-07-05T03:53:08;12;12;
64631;PMS5003;58358;50.936;0.246;2022-07-05T03:55:29;16;15;
64631;PMS5003;58358;50.936;0.246;2022-07-05T03:57:54;14;13;
64631;PMS5003;58358;50.936;0.246;2022-07-05T04:00:20;14;12;
64631;PMS5003;58358;50.936;0.246;2022-07-05T04:02:46;13;13;
64631;PMS5003;58358;50.936;0.246;2022-07-05T04:05:11;17;13;
64631;PMS5003;58358;50.936;0.246;2022-07-05T04:10:03;14;14;
64631;PMS5003;58358;50.936;0.246;2022-07-05T04:12:29;15;14;
64631;PMS5003;58358;50.936;0.246;2022-07-05T04:14:54;12;12;
64631;PMS5003;58358;50.936;0.246;2022-07-05T04:17:20;11;11;
64631;PMS5003;58358;50.936;0.246;2022-07-05T04:19:46;16;15;
64631;PMS5003;58358;50.936;0.246;2022-07-05T04:22:12;12;11;
64631;PMS5003;58358;50.936;0.246;2022-07-05T04:24:38;14;14;
64631;PMS5003;58358;50.936;0.246;2022-07-05T04:27:04;12;12;
64631;PMS5003;58358;50.936;0.246;2022-07-05T04:29:29;13;11;
64631;PMS5003;58358;50.936;0.246;2022-07-05T04:31:55;13;12;
64631;PMS5003;58358;50.936;0.246;2022-07-05T04:34:21;15;13;
64631;PMS5003;58358;50.936;0.246;2022-07-05T04:36:46;13;13;
64631;PMS5003;58358;50.936;0.246;2022-07-05T04:39:12;12;12;
64631;PMS5003;58358;50.936;0.246;2022-07-05T04:41:38;11;11;
64631;PMS5003;58358;50.936;0.246;2022-07-05T04:44:04;15;13;
64631;PMS5003;58358;50.936;0.246;2022-07-05T04:46:30;11;11;
64631;PMS5003;58358;50.936;0.246;2022-07-05T04:48:55;12;12;
64631;PMS5003;58358;50.936;0.246;2022-07-05T04:51:21;18;17;
64631;PMS5003;58358;50.936;0.246;2022-07-05T04:53:46;14;14;
64631;PMS5003;58358;50.936;0.246;2022-07-05T04:56:12;11;10;
64631;PMS5003;58358;50.936;0.246;2022-07-05T04:58:38;11;11;
64631;PMS5003;58358;50.936;0.246;2022-07-05T05:01:04;10;10;
64631;PMS5003;58358;50.936;0.246;2022-07-05T05:03:29;13;13;
64631;PMS5003;58358;50.936;0.246;2022-07-05T05:05:55;15;11;
64631;PMS5003;58358;50.936;0.246;2022-07-05T05:08:21;11;11;
64631;PMS5003;58358;50.936;0.246;2022-07-05T05:10:47;11;11;
64631;PMS5003;58358;50.936;0.246;2022-07-05T05:13:12;10;10;
64631;PMS5003;58358;50.936;0.246;2022-07-05T05:15:38;10;10;
64631;PMS5003;58358;50.936;0.246;2022-07-05T05:18:04;13;13;
64631;PMS5003;58358;50.936;0.246;2022-07-05T05:20:30;13;13;
64631;PMS5003;58358;50.936;0.246;2022-07-05T05:22:55;14;12;
64631;PMS5003;58358;50.936;0.246;2022-07-05T05:25:21;11;11;
64631;PMS5003;58358;50.936;0.246;2022-07-05T05:27:47;11;11;
64631;PMS5003;58358;50.936;0.246;2022-07-05T05:30:13;13;11;
64631;PMS5003;58358;50.936;0.246;2022-07-05T05:32:38;11;11;
64631;PMS5003;58358;50.936;0.246;2022-07-05T05:35:05;10;10;
64631;PMS5003;58358;50.936;0.246;2022-07-05T05:37:30;13;13;
64631;PMS5003;58358;50.936;0.246;2022-07-05T05:39:56;10;10;
64631;PMS5003;58358;50.936;0.246;2022-07-05T05:42:21;12;10;
64631;PMS5003;58358;50.936;0.246;2022-07-05T05:44:47;14;11;
64631;PMS5003;58358;50.936;0.246;2022-07-05T05:47:13;9;9;
64631;PMS5003;58358;50.936;0.246;2022-07-05T05:49:38;9;9;
64631;PMS5003;58358;50.936;0.246;2022-07-05T05:52:04;11;9;
64631;PMS5003;58358;50.936;0.246;2022-07-05T05:54:30;8;8;
64631;PMS5003;58358;50.936;0.246;2022-07-05T05:56:56;11;11;
64631;PMS5003;58358;50.936;0.246;2022-07-05T05:59:21;9;9;
64631;PMS5003;58358;50.936;0.246;2022-07-05T06:01:47;8;8;
64631;PMS5003;58358;50.936;0.246;2022-07-05T06:04:12;40;37;
64631;PMS5003;58358;50.936;0.246;2022-07-05T06:06:38;83;76;
64631;PMS5003;58358;50.936;0.246;2022-07-05T06:09:04;105;91;
64631;PMS5003;58358;50.936;0.246;2022-07-05T06:11:29;72;66;
64631;PMS5003;58358;50.936;0.246;2022-07-05T06:13:55;94;84;
64631;PMS5003;58358;50.936;0.246;2022-07-05T06:16:20;59;49;
64631;PMS5003;58358;50.936;0.246;2022-07-05T06:18:45;42;37;
64631;PMS5003;58358;50.936;0.246;2022-07-05T06:21:11;24;24;
64631;PMS5003;58358;50.936;0.246;2022-07-05T06:23:36;11;10;
64631;PMS5003;58358;50.936;0.246;2022-07-05T06:26:02;16;15;
64631;PMS5003;58358;50.936;0.246;2022-07-05T06:28:28;13;13;
64631;PMS5003;58358;50.936;0.246;2022-07-05T06:30:53;8;8;
64631;PMS5003;58358;50.936;0.246;2022-07-05T06:33:19;8;6;
64631;PMS5003;58358;50.936;0.246;2022-07-05T06:35:45;7;7;
64631;PMS5003;58358;50.936;0.246;2022-07-05T06:38:11;4;4;
64631;PMS5003;58358;50.936;0.246;2022-07-05T06:40:37;5;4;
64631;PMS5003;58358;50.936;0.246;2022-07-05T06:43:03;8;7;
64631;PMS5003;58358;50.936;0.246;2022-07-05T06:45:28;7;7;
64631;PMS5003;58358;50.936;0.246;2022-07-05T06:47:54;8;7;
64631;PMS5003;58358;50.936;0.246;2022-07-05T06:50:19;6;6;
64631;PMS5003;58358;50.936;0.246;2022-07-05T06:52:45;6;6;
64631;PMS5003;58358;50.936;0.246;2022-07-05T06:55:10;8;8;
64631;PMS5003;58358;50.936;0.246;2022-07-05T06:57:36;8;8;
64631;PMS5003;58358;50.936;0.246;2022-07-05T07:00:02;5;5;
64631;PMS5003;58358;50.936;0.246;2022-07-05T07:02:28;5;5;
64631;PMS5003;58358;50.936;0.246;2022-07-05T07:04:53;8;7;
64631;PMS5003;58358;50.936;0.246;2022-07-05T07:07:19;9;9;
64631;PMS5003;58358;50.936;0.246;2022-07-05T07:09:45;7;6;
64631;PMS5003;58358;50.936;0.246;2022-07-05T07:12:10;6;6;
64631;PMS5003;58358;50.936;0.246;2022-07-05T07:14:36;8;6;
64631;PMS5003;58358;50.936;0.246;2022-07-05T07:17:01;28;28;
64631;PMS5003;58358;50.936;0.246;2022-07-05T07:19:27;12;10;
64631;PMS5003;58358;50.936;0.246;2022-07-05T07:21:53;5;5;
64631;PMS5003;58358;50.936;0.246;2022-07-05T07:24:18;3;3;
64631;PMS5003;58358;50.936;0.246;2022-07-05T07:26:44;5;4;
64631;PMS5003;58358;50.936;0.246;2022-07-05T07:29:10;4;4;
64631;PMS5003;58358;50.936;0.246;2022-07-05T07:31:36;6;5;
64631;PMS5003;58358;50.936;0.246;2022-07-05T07:34:01;4;4;
64631;PMS5003;58358;50.936;0.246;2022-07-05T07:36:27;3;3;
64631;PMS5003;58358;50.936;0.246;2022-07-05T07:38:53;5;5;
64631;PMS5003;58358;50.936;0.246;2022-07-05T07:41:18;4;4;
64631;PMS5003;58358;50.936;0.246;2022-07-05T07:43:44;2;2;
64631;PMS5003;58358;50.936;0.246;2022-07-05T07:46:10;5;4;
64631;PMS5003;58358;50.936;0.246;2022-07-05T07:48:36;2;2;
64631;PMS5003;58358;50.936;0.246;2022-07-05T07:51:01;8;8;
64631;PMS5003;58358;50.936;0.246;2022-07-05T07:53:27;6;6;
64631;PMS5003;58358;50.936;0.246;2022-07-05T07:55:52;3;3;
64631;PMS5003;58358;50.936;0.246;2022-07-05T07:58:18;4;4;
64631;PMS5003;58358;50.936;0.246;2022-07-05T08:00:44;5;3;
64631;PMS5003;58358;50.936;0.246;2022-07-05T08:03:09;3;3;
64631;PMS5003;58358;50.936;0.246;2022-07-05T08:05:35;5;3;
64631;PMS5003;58358;50.936;0.246;2022-07-05T08:08:01;4;4;
64631;PMS5003;58358;50.936;0.246;2022-07-05T08:10:27;5;5;
64631;PMS5003;58358;50.936;0.246;2022-07-05T08:12:52;6;6;
64631;PMS5003;58358;50.936;0.246;2022-07-05T08:15:18;3;3;
64631;PMS5003;58358;50.936;0.246;2022-07-05T08:17:44;5;4;
64631;PMS5003;58358;50.936;0.246;2022-07-05T08:20:10;5;5;
64631;PMS5003;58358;50.936;0.246;2022-07-05T08:22:35;4;4;
64631;PMS5003;58358;50.936;0.246;2022-07-05T08:25:01;4;4;
64631;PMS5003;58358;50.936;0.246;2022-07-05T08:27:26;3;3;
64631;PMS5003;58358;50.936;0.246;2022-07-05T08:29:51;4;4;
64631;PMS5003;58358;50.936;0.246;2022-07-05T08:32:17;6;4;
64631;PMS5003;58358;50.936;0.246;2022-07-05T08:34:43;3;3;
64631;PMS5003;58358;50.936;0.246;2022-07-05T08:37:08;2;2;
64631;PMS5003;58358;50.936;0.246;2022-07-05T08:39:34;2;2;
64631;PMS5003;58358;50.936;0.246;2022-07-05T08:41:59;3;3;
64631;PMS5003;58358;50.936;0.246;2022-07-05T08:44:26;5;3;
64631;PMS5003;58358;50.936;0.246;2022-07-05T08:46:51;6;6;
64631;PMS5003;58358;50.936;0.246;2022-07-05T08:49:19;6;5;
64631;PMS5003;58358;50.936;0.246;2022-07-05T08:51:42;3;3;
64631;PMS5003;58358;50.936;0.246;2022-07-05T08:54:08;3;3;
64631;PMS5003;58358;50.936;0.246;2022-07-05T08:56:33;4;4;
64631;PMS5003;58358;50.936;0.246;2022-07-05T08:58:59;6;4;
64631;PMS5003;58358;50.936;0.246;2022-07-05T09:01:25;4;4;
64631;PMS5003;58358;50.936;0.246;2022-07-05T09:03:50;4;3;
64631;PMS5003;58358;50.936;0.246;2022-07-05T09:06:16;4;4;
64631;PMS5003;58358;50.936;0.246;2022-07-05T09:08:42;3;3;
64631;PMS5003;58358;50.936;0.246;2022-07-05T09:11:08;3;3;
64631;PMS5003;58358;50.936;0.246;2022-07-05T09:13:33;4;4;
64631;PMS5003;58358;50.936;0.246;2022-07-05T09:15:58;6;6;
64631;PMS5003;58358;50.936;0.246;2022-07-05T09:20:50;3;3;
64631;PMS5003;58358;50.936;0.246;2022-07-05T09:23:18;3;3;
64631;PMS5003;58358;50.936;0.246;2022-07-05T09:25:41;5;5;
64631;PMS5003;58358;50.936;0.246;2022-07-05T09:28:07;4;4;
64631;PMS5003;58358;50.936;0.246;2022-07-05T09:30:33;7;5;
64631;PMS5003;58358;50.936;0.246;2022-07-05T09:32:59;4;4;
64631;PMS5003;58358;50.936;0.246;2022-07-05T09:35:24;3;3;
64631;PMS5003;58358;50.936;0.246;2022-07-05T09:37:49;1;1;
64631;PMS5003;58358;50.936;0.246;2022-07-05T09:40:15;4;4;
64631;PMS5003;58358;50.936;0.246;2022-07-05T09:42:40;2;2;
64631;PMS5003;58358;50.936;0.246;2022-07-05T09:45:07;3;3;
64631;PMS5003;58358;50.936;0.246;2022-07-05T09:47:32;2;2;
64631;PMS5003;58358;50.936;0.246;2022-07-05T09:49:58;3;3;
64631;PMS5003;58358;50.936;0.246;2022-07-05T09:52:27;4;4;
64631;PMS5003;58358;50.936;0.246;2022-07-05T09:59:40;5;3;
64631;PMS5003;58358;50.936;0.246;2022-07-05T10:02:06;4;4;
64631;PMS5003;58358;50.936;0.246;2022-07-05T10:04:31;3;3;
64631;PMS5003;58358;50.936;0.246;2022-07-05T10:06:57;4;4;
64631;PMS5003;58358;50.936;0.246;2022-07-05T10:09:23;2;2;
64631;PMS5003;58358;50.936;0.246;2022-07-05T10:11:48;6;5;
64631;PMS5003;58358;50.936;0.246;2022-07-05T10:14:15;3;3;
64631;PMS5003;58358;50.936;0.246;2022-07-05T10:16:39;5;5;
64631;PMS5003;58358;50.936;0.246;2022-07-05T10:19:06;4;4;
64631;PMS5003;58358;50.936;0.246;2022-07-05T10:21:31;4;4;
64631;PMS5003;58358;50.936;0.246;2022-07-05T10:23:56;4;4;
64631;PMS5003;58358;50.936;0.246;2022-07-05T10:26:22;5;5;
64631;PMS5003;58358;50.936;0.246;2022-07-05T10:28:48;3;3;
64631;PMS5003;58358;50.936;0.246;2022-07-05T10:31:14;4;4;
64631;PMS5003;58358;50.936;0.246;2022-07-05T10:33:39;4;4;
64631;PMS5003;58358;50.936;0.246;2022-07-05T10:36:04;3;3;
64631;PMS5003;58358;50.936;0.246;2022-07-05T10:38:30;6;6;
64631;PMS5003;58358;50.936;0.246;2022-07-05T10:40:57;5;5;
64631;PMS5003;58358;50.936;0.246;2022-07-05T10:43:21;6;5;
64631;PMS5003;58358;50.936;0.246;2022-07-05T10:45:47;5;5;
64631;PMS5003;58358;50.936;0.246;2022-07-05T10:48:16;7;5;
64631;PMS5003;58358;50.936;0.246;2022-07-05T10:50:42;6;6;
64631;PMS5003;58358;50.936;0.246;2022-07-05T10:53:03;5;5;
64631;PMS5003;58358;50.936;0.246;2022-07-05T10:55:29;7;7;
64631;PMS5003;58358;50.936;0.246;2022-07-05T11:00:20;7;7;
64631;PMS5003;58358;50.936;0.246;2022-07-05T11:02:46;6;6;
64631;PMS5003;58358;50.936;0.246;2022-07-05T11:05:12;6;6;
64631;PMS5003;58358;50.936;0.246;2022-07-05T11:10:03;5;5;
64631;PMS5003;58358;50.936;0.246;2022-07-05T11:14:54;10;8;
64631;PMS5003;58358;50.936;0.246;2022-07-05T11:17:20;5;5;
64631;PMS5003;58358;50.936;0.246;2022-07-05T11:22:11;7;7;
64631;PMS5003;58358;50.936;0.246;2022-07-05T11:24:37;7;7;
64631;PMS5003;58358;50.936;0.246;2022-07-05T11:27:03;5;5;
64631;PMS5003;58358;50.936;0.246;2022-07-05T11:34:19;5;5;
64631;PMS5003;58358;50.936;0.246;2022-07-05T11:36:45;12;12;
64631;PMS5003;58358;50.936;0.246;2022-07-05T11:39:11;7;7;
64631;PMS5003;58358;50.936;0.246;2022-07-05T11:41:36;5;5;
64631;PMS5003;58358;50.936;0.246;2022-07-05T11:44:02;5;5;
64631;PMS5003;58358;50.936;0.246;2022-07-05T11:46:27;3;3;
64631;PMS5003;58358;50.936;0.246;2022-07-05T11:48:53;4;4;
64631;PMS5003;58358;50.936;0.246;2022-07-05T11:51:18;6;6;
64631;PMS5003;58358;50.936;0.246;2022-07-05T11:53:44;10;8;
64631;PMS5003;58358;50.936;0.246;2022-07-05T11:56:10;6;6;
64631;PMS5003;58358;50.936;0.246;2022-07-05T11:58:36;5;5;
64631;PMS5003;58358;50.936;0.246;2022-07-05T12:01:01;5;5;
64631;PMS5003;58358;50.936;0.246;2022-07-05T12:03:27;6;6;
64631;PMS5003;58358;50.936;0.246;2022-07-05T12:05:52;4;4;
64631;PMS5003;58358;50.936;0.246;2022-07-05T12:08:19;6;5;
64631;PMS5003;58358;50.936;0.246;2022-07-05T12:10:45;4;4;
64631;PMS5003;58358;50.936;0.246;2022-07-05T12:13:09;7;7;
64631;PMS5003;58358;50.936;0.246;2022-07-05T12:15:35;5;5;
64631;PMS5003;58358;50.936;0.246;2022-07-05T12:18:01;5;5;
64631;PMS5003;58358;50.936;0.246;2022-07-05T12:20:26;4;4;
64631;PMS5003;58358;50.936;0.246;2022-07-05T12:22:51;5;5;
64631;PMS5003;58358;50.936;0.246;2022-07-05T12:25:17;6;6;
64631;PMS5003;58358;50.936;0.246;2022-07-05T12:27:43;8;6;
64631;PMS5003;58358;50.936;0.246;2022-07-05T12:30:09;5;5;
64631;PMS5003;58358;50.936;0.246;2022-07-05T12:32:34;6;5;
64631;PMS5003;58358;50.936;0.246;2022-07-05T12:34:59;5;5;
64631;PMS5003;58358;50.936;0.246;2022-07-05T12:37:27;6;5;
64631;PMS5003;58358;50.936;0.246;2022-07-05T12:40:01;6;6;
64631;PMS5003;58358;50.936;0.246;2022-07-05T12:44:42;9;8;
64631;PMS5003;58358;50.936;0.246;2022-07-05T12:47:07;9;8;
64631;PMS5003;58358;50.936;0.246;2022-07-05T12:52:03;8;7;
64631;PMS5003;58358;50.936;0.246;2022-07-05T12:54:24;10;10;
64631;PMS5003;58358;50.936;0.246;2022-07-05T12:56:50;11;11;
64631;PMS5003;58358;50.936;0.246;2022-07-05T12:59:15;12;12;
64631;PMS5003;58358;50.936;0.246;2022-07-05T13:01:41;17;17;
64631;PMS5003;58358;50.936;0.246;2022-07-05T13:04:07;19;19;
64631;PMS5003;58358;50.936;0.246;2022-07-05T13:06:42;17;17;
64631;PMS5003;58358;50.936;0.246;2022-07-05T13:08:57;17;17;
64631;PMS5003;58358;50.936;0.246;2022-07-05T13:11:30;21;21;
64631;PMS5003;58358;50.936;0.246;2022-07-05T13:13:47;33;29;
64631;PMS5003;58358;50.936;0.246;2022-07-05T13:16:12;46;45;
64631;PMS5003;58358;50.936;0.246;2022-07-05T13:18:38;63;60;
64631;PMS5003;58358;50.936;0.246;2022-07-05T13:21:03;86;84;
64631;PMS5003;58358;50.936;0.246;2022-07-05T13:23:29;81;76;
64631;PMS5003;58358;50.936;0.246;2022-07-05T13:25:55;100;97;
64631;PMS5003;58358;50.936;0.246;2022-07-05T13:28:21;106;102;
64631;PMS5003;58358;50.936;0.246;2022-07-05T13:30:46;121;120;
64631;PMS5003;58358;50.936;0.246;2022-07-05T13:33:12;130;126;
64631;PMS5003;58358;50.936;0.246;2022-07-05T13:35:37;142;135;
64631;PMS5003;58358;50.936;0.246;2022-07-05T13:38:03;151;145;
64631;PMS5003;58358;50.936;0.246;2022-07-05T13:40:29;129;126;
64631;PMS5003;58358;50.936;0.246;2022-07-05T13:42:54;123;119;
64631;PMS5003;58358;50.936;0.246;2022-07-05T13:45:20;134;126;
64631;PMS5003;58358;50.936;0.246;2022-07-05T13:47:45;121;116;
64631;PMS5003;58358;50.936;0.246;2022-07-05T13:50:10;132;124;
64631;PMS5003;58358;50.936;0.246;2022-07-05T13:52:36;138;134;
64631;PMS5003;58358;50.936;0.246;2022-07-05T13:55:01;106;103;
64631;PMS5003;58358;50.936;0.246;2022-07-05T13:57:26;102;93;
64631;PMS5003;58358;50.936;0.246;2022-07-05T13:59:51;94;90;
64631;PMS5003;58358;50.936;0.246;2022-07-05T14:02:17;98;98;
64631;PMS5003;58358;50.936;0.246;2022-07-05T14:04:42;106;99;
64631;PMS5003;58358;50.936;0.246;2022-07-05T14:07:08;100;97;
64631;PMS5003;58358;50.936;0.246;2022-07-05T14:09:33;108;101;
64631;PMS5003;58358;50.936;0.246;2022-07-05T14:11:59;110;104;
64631;PMS5003;58358;50.936;0.246;2022-07-05T14:14:24;117;112;
64631;PMS5003;58358;50.936;0.246;2022-07-05T14:16:50;109;106;
64631;PMS5003;58358;50.936;0.246;2022-07-05T14:19:15;107;104;
64631;PMS5003;58358;50.936;0.246;2022-07-05T14:21:40;107;100;
64631;PMS5003;58358;50.936;0.246;2022-07-05T14:24:06;108;106;
64631;PMS5003;58358;50.936;0.246;2022-07-05T14:26:31;100;99;
64631;PMS5003;58358;50.936;0.246;2022-07-05T14:28:56;110;105;
64631;PMS5003;58358;50.936;0.246;2022-07-05T14:31:22;105;100;
64631;PMS5003;58358;50.936;0.246;2022-07-05T14:33:47;99;93;
64631;PMS5003;58358;50.936;0.246;2022-07-05T14:36:12;92;85;
64631;PMS5003;58358;50.936;0.246;2022-07-05T14:38:38;92;86;
64631;PMS5003;58358;50.936;0.246;2022-07-05T14:41:04;105;99;
64631;PMS5003;58358;50.936;0.246;2022-07-05T14:43:29;103;96;
64631;PMS5003;58358;50.936;0.246;2022-07-05T14:45:55;91;87;
64631;PMS5003;58358;50.936;0.246;2022-07-05T14:48:20;92;89;
64631;PMS5003;58358;50.936;0.246;2022-07-05T14:50:46;87;79;
64631;PMS5003;58358;50.936;0.246;2022-07-05T14:53:11;78;70;
64631;PMS5003;58358;50.936;0.246;2022-07-05T14:55:37;79;73;
64631;PMS5003;58358;50.936;0.246;2022-07-05T14:58:02;76;74;
64631;PMS5003;58358;50.936;0.246;2022-07-05T15:00:27;43;42;
64631;PMS5003;58358;50.936;0.246;2022-07-05T15:02:52;26;23;
64631;PMS5003;58358;50.936;0.246;2022-07-05T15:05:18;15;15;
64631;PMS5003;58358;50.936;0.246;2022-07-05T15:07:43;14;14;
64631;PMS5003;58358;50.936;0.246;2022-07-05T15:10:09;11;11;
64631;PMS5003;58358;50.936;0.246;2022-07-05T15:12:34;12;10;
64631;PMS5003;58358;50.936;0.246;2022-07-05T15:14:59;8;8;
64631;PMS5003;58358;50.936;0.246;2022-07-05T15:17:25;8;8;
64631;PMS5003;58358;50.936;0.246;2022-07-05T15:19:50;8;8;
64631;PMS5003;58358;50.936;0.246;2022-07-05T15:22:16;7;7;
64631;PMS5003;58358;50.936;0.246;2022-07-05T15:24:41;7;7;
64631;PMS5003;58358;50.936;0.246;2022-07-05T15:27:07;8;8;
64631;PMS5003;58358;50.936;0.246;2022-07-05T15:29:33;7;7;
64631;PMS5003;58358;50.936;0.246;2022-07-05T15:31:58;18;17;
64631;PMS5003;58358;50.936;0.246;2022-07-05T15:34:23;9;9;
64631;PMS5003;58358;50.936;0.246;2022-07-05T15:36:49;10;10;
64631;PMS5003;58358;50.936;0.246;2022-07-05T15:39:14;13;12;
64631;PMS5003;58358;50.936;0.246;2022-07-05T15:41:40;8;8;
64631;PMS5003;58358;50.936;0.246;2022-07-05T15:44:06;8;7;
64631;PMS5003;58358;50.936;0.246;2022-07-05T15:46:31;8;8;
64631;PMS5003;58358;50.936;0.246;2022-07-05T15:48:57;13;12;
64631;PMS5003;58358;50.936;0.246;2022-07-05T15:51:23;7;6;
64631;PMS5003;58358;50.936;0.246;2022-07-05T15:53:48;7;6;
64631;PMS5003;58358;50.936;0.246;2022-07-05T15:56:14;8;8;
64631;PMS5003;58358;50.936;0.246;2022-07-05T15:58:39;12;10;
64631;PMS5003;58358;50.936;0.246;2022-07-05T16:01:05;8;7;
64631;PMS5003;58358;50.936;0.246;2022-07-05T16:03:30;7;7;
64631;PMS5003;58358;50.936;0.246;2022-07-05T16:05:56;7;6;
64631;PMS5003;58358;50.936;0.246;2022-07-05T16:08:22;6;6;
64631;PMS5003;58358;50.936;0.246;2022-07-05T16:10:47;6;6;
64631;PMS5003;58358;50.936;0.246;2022-07-05T16:13:13;5;5;
64631;PMS5003;58358;50.936;0.246;2022-07-05T16:15:38;7;6;
64631;PMS5003;58358;50.936;0.246;2022-07-05T16:18:04;9;8;
64631;PMS5003;58358;50.936;0.246;2022-07-05T16:20:30;14;14;
64631;PMS5003;58358;50.936;0.246;2022-07-05T16:22:55;13;13;
64631;PMS5003;58358;50.936;0.246;2022-07-05T16:25:21;10;10;
64631;PMS5003;58358;50.936;0.246;2022-07-05T16:27:46;8;8;
64631;PMS5003;58358;50.936;0.246;2022-07-05T16:30:12;12;12;
64631;PMS5003;58358;50.936;0.246;2022-07-05T16:32:38;8;8;
64631;PMS5003;58358;50.936;0.246;2022-07-05T16:35:03;10;10;
64631;PMS5003;58358;50.936;0.246;2022-07-05T16:37:29;9;9;
64631;PMS5003;58358;50.936;0.246;2022-07-05T16:39:54;10;10;
64631;PMS5003;58358;50.936;0.246;2022-07-05T16:42:20;9;9;
64631;PMS5003;58358;50.936;0.246;2022-07-05T16:44:46;14;11;
64631;PMS5003;58358;50.936;0.246;2022-07-05T16:47:11;9;9;
64631;PMS5003;58358;50.936;0.246;2022-07-05T16:49:37;9;9;
64631;PMS5003;58358;50.936;0.246;2022-07-05T16:52:03;6;6;
64631;PMS5003;58358;50.936;0.246;2022-07-05T16:54:28;5;5;